This is the latest recevied weather packets stored in our database for station/object WA5KWK. If no packets are shown the sender has not sent any weather packets the latest 10 day(s).
| Time | Temp. | Humidity | Pressure | Rain* | Wind** | Luminosity | Snow |
|---|---|---|---|---|---|---|---|
| 1778044204 | 8.89° C | 94% | 1016.5 hPa | 0 mm | - | 0 W/m² | - |
| 1778042704 | 9.44° C | 94% | 1016.1 hPa | 0 mm | - | 0 W/m² | - |
| 1778037305 | 10° C | 92% | 1015.3 hPa | 0 mm | - | 0 W/m² | - |
| 1778035504 | 10.56° C | 92% | 1015.3 hPa | 0 mm | - | 7 W/m² | - |
| 1778027106 | 10.56° C | 90% | 1014.9 hPa | 0 mm | - | 42 W/m² | - |
| 1778026806 | 10.56° C | 90% | 1014.8 hPa | 0 mm | - | 47 W/m² | - |
| 1778025306 | 10.56° C | 90% | 1014.6 hPa | 0 mm | - | 102 W/m² | - |
| 1778024406 | 10.56° C | 91% | 1014.6 hPa | 0 mm | - | 98 W/m² | - |
| 1778022606 | 10° C | 92% | 1014.5 hPa | 0 mm | - | 104 W/m² | - |
| 1778018705 | 10.56° C | 89% | 1014.7 hPa | 0 mm | - | 139 W/m² | - |
| 1778016307 | 10° C | 89% | 1014.7 hPa | 0 mm | - | 139 W/m² | - |
| 1778016006 | 10° C | 88% | 1014.8 hPa | 0 mm | - | 130 W/m² | - |
| 1778011506 | 9.44° C | 89% | 1014.6 hPa | 0 mm | - | 118 W/m² | - |
| 1778010906 | 9.44° C | 89% | 1014.7 hPa | 0 mm | - | 132 W/m² | - |
| 1778010306 | 9.44° C | 89% | 1014.6 hPa | 0 mm | - | 148 W/m² | - |
| 1778009406 | 9.44° C | 89% | 1014.4 hPa | 0 mm | - | 165 W/m² | - |
| 1778007006 | 8.89° C | 91% | 1014.2 hPa | 0 mm | - | 221 W/m² | - |
| 1778006406 | 9.44° C | 90% | 1014.2 hPa | 0 mm | - | 207 W/m² | - |
| 1778006105 | 9.44° C | 90% | 1014.2 hPa | 0 mm | - | 308 W/m² | - |
| 1778003106 | 9.44° C | 90% | 1013.7 hPa | 0 mm | - | 216 W/m² | - |
| 1778001305 | 10° C | 89% | 1013.4 hPa | 0 mm | - | 364 W/m² | - |
| 1778000106 | 9.44° C | 90% | 1013.4 hPa | 0 mm | - | 229 W/m² | - |
| 1777997706 | 9.44° C | 93% | 1013.2 hPa | 0 mm | - | 260 W/m² | - |
| 1777997406 | 8.89° C | 94% | 1013.2 hPa | 0 mm | - | 432 W/m² | - |
| 1777992005 | 7.78° C | 95% | 1013 hPa | 0 mm | - | 97 W/m² | - |
* Rain latest hour (hover to see other rain measurements)
** Current wind speed in m/s (hover to see current wind gust speed)